createdAt,value
2016-03-13T00:00:29.199Z,0
2016-03-13T00:01:29.499Z,0
2016-03-13T00:02:29.345Z,0
2016-03-13T00:03:29.504Z,0
2016-03-13T00:04:29.538Z,0
2016-03-13T00:05:29.477Z,0
2016-03-13T00:06:29.418Z,0
2016-03-13T00:07:23.952Z,0
2016-03-13T00:08:23.923Z,0
2016-03-13T00:09:23.880Z,0
2016-03-13T00:10:23.835Z,0
2016-03-13T00:11:23.807Z,0
2016-03-13T00:12:23.779Z,0
2016-03-13T00:13:23.750Z,0
2016-03-13T00:14:23.706Z,0
2016-03-13T00:15:23.692Z,0
2016-03-13T00:16:23.664Z,0
2016-03-13T00:17:23.620Z,0
2016-03-13T00:18:23.576Z,0
2016-03-13T00:19:23.532Z,0
2016-03-13T00:20:23.503Z,0
2016-03-13T00:21:23.475Z,0
2016-03-13T00:22:23.430Z,0
2016-03-13T00:23:23.401Z,0
2016-03-13T00:24:23.358Z,0
2016-03-13T00:25:23.328Z,0
2016-03-13T00:26:23.300Z,0
2016-03-13T00:27:23.100Z,0
2016-03-13T00:28:23.227Z,0
2016-03-13T00:29:23.199Z,0
2016-03-13T00:30:23.170Z,0
2016-03-13T00:31:23.127Z,0
2016-03-13T00:32:23.098Z,0
2016-03-13T00:33:23.085Z,0
2016-03-13T00:34:23.025Z,0
2016-03-13T00:35:22.996Z,0
2016-03-13T00:36:22.952Z,0
2016-03-13T00:37:22.923Z,0
2016-03-13T00:38:22.896Z,0
2016-03-13T00:39:22.871Z,0
2016-03-13T00:40:22.827Z,0
2016-03-13T00:41:22.783Z,0
2016-03-13T00:42:22.754Z,0
2016-03-13T00:43:22.695Z,0
2016-03-13T00:44:22.682Z,0
2016-03-13T00:45:22.637Z,0
2016-03-13T00:46:22.625Z,0
2016-03-13T00:47:22.564Z,0
2016-03-13T00:48:22.537Z,0
2016-03-13T00:49:22.508Z,0
2016-03-13T00:50:22.464Z,0
2016-03-13T00:51:22.435Z,0
2016-03-13T00:52:22.406Z,0
2016-03-13T00:53:22.378Z,0
2016-03-13T00:54:22.333Z,0
2016-03-13T00:55:22.289Z,0
2016-03-13T00:56:22.277Z,0
2016-03-13T00:57:22.232Z,0
2016-03-13T00:58:22.203Z,0
2016-03-13T00:59:22.175Z,0
2016-03-13T01:00:22.131Z,0
2016-03-13T01:01:22.103Z,0
2016-03-13T01:02:22.058Z,0
2016-03-13T01:03:22.014Z,0
2016-03-13T01:04:21.985Z,0
2016-03-13T01:05:21.957Z,0
2016-03-13T01:06:21.928Z,0
2016-03-13T01:07:21.885Z,0
2016-03-13T01:08:21.855Z,0
2016-03-13T01:09:21.812Z,0
2016-03-13T01:10:21.783Z,0
2016-03-13T01:11:21.755Z,0
2016-03-13T01:12:21.726Z,0
2016-03-13T01:13:26.603Z,0
2016-03-13T01:14:21.809Z,0
2016-03-13T01:15:21.624Z,0
2016-03-13T01:16:21.595Z,0
2016-03-13T01:17:21.551Z,0
2016-03-13T01:18:21.524Z,0
2016-03-13T01:19:21.479Z,0
2016-03-13T01:20:21.451Z,0
2016-03-13T01:21:21.422Z,0
2016-03-13T01:22:21.378Z,0
2016-03-13T01:23:21.349Z,0
2016-03-13T01:24:21.305Z,0
2016-03-13T01:25:21.291Z,0
2016-03-13T01:26:21.248Z,0
2016-03-13T01:27:21.203Z,0
2016-03-13T01:28:21.191Z,0
2016-03-13T01:29:21.147Z,0
2016-03-13T01:30:21.118Z,0
2016-03-13T01:31:21.089Z,0
2016-03-13T01:32:21.061Z,0
2016-03-13T01:33:21.016Z,0
2016-03-13T01:34:20.972Z,0
2016-03-13T01:35:20.959Z,0
2016-03-13T01:36:20.930Z,0
2016-03-13T01:37:20.903Z,0
2016-03-13T01:38:20.843Z,0
2016-03-13T01:39:20.814Z,0
2016-03-13T01:40:20.785Z,0
2016-03-13T01:41:20.757Z,0
2016-03-13T01:42:20.712Z,0
2016-03-13T01:43:20.684Z,0
2016-03-13T01:44:20.640Z,0
2016-03-13T01:45:20.627Z,0
2016-03-13T01:46:20.583Z,0
2016-03-13T01:47:20.554Z,0
2016-03-13T01:48:20.526Z,0
2016-03-13T01:49:20.498Z,0
2016-03-13T01:50:20.453Z,0
2016-03-13T01:51:20.425Z,0
2016-03-13T01:52:20.380Z,0
2016-03-13T01:53:20.336Z,0
2016-03-13T01:54:20.308Z,0
2016-03-13T01:55:20.263Z,0
2016-03-13T01:56:20.235Z,0
2016-03-13T01:57:20.206Z,0
2016-03-13T01:58:20.178Z,0
2016-03-13T01:59:20.149Z,0
2016-03-13T02:00:20.105Z,0
2016-03-13T02:01:20.061Z,0
2016-03-13T02:02:20.032Z,0
2016-03-13T02:03:20.003Z,0
2016-03-13T02:04:19.975Z,0
2016-03-13T02:05:19.931Z,0
2016-03-13T02:06:19.902Z,0
2016-03-13T02:07:19.889Z,0
2016-03-13T02:08:19.846Z,0
2016-03-13T02:09:19.816Z,0
2016-03-13T02:10:19.757Z,0
2016-03-13T02:11:19.760Z,0
2016-03-13T02:12:19.699Z,0
2016-03-13T02:13:19.546Z,0
2016-03-13T02:14:19.642Z,0
2016-03-13T02:15:19.599Z,0
2016-03-13T02:16:19.570Z,0
2016-03-13T02:17:19.526Z,0
2016-03-13T02:18:19.498Z,0
2016-03-13T02:19:19.468Z,0
2016-03-13T02:20:19.456Z,0
2016-03-13T02:21:19.381Z,0
2016-03-13T02:22:19.398Z,0
2016-03-13T02:23:19.339Z,0
2016-03-13T02:24:19.309Z,0
2016-03-13T02:25:19.266Z,0
2016-03-13T02:26:19.253Z,0
2016-03-13T02:27:19.193Z,0
2016-03-13T02:28:19.025Z,0
2016-03-13T02:29:19.136Z,0
2016-03-13T02:30:19.108Z,0
2016-03-13T02:31:19.047Z,0
2016-03-13T02:32:19.050Z,0
2016-03-13T02:33:18.990Z,0
2016-03-13T02:34:18.962Z,0
2016-03-13T02:35:18.934Z,0
2016-03-13T02:36:18.904Z,0
2016-03-13T02:37:18.861Z,0
2016-03-13T02:38:18.833Z,0
2016-03-13T02:39:18.788Z,0
2016-03-13T02:40:18.760Z,0
2016-03-13T02:41:18.715Z,0
2016-03-13T02:42:18.702Z,0
2016-03-13T02:43:18.658Z,0
2016-03-13T02:44:18.614Z,0
2016-03-13T02:45:18.585Z,0
2016-03-13T02:46:18.573Z,0
2016-03-13T02:47:18.528Z,0
2016-03-13T02:48:18.531Z,0
2016-03-13T02:49:18.471Z,0
2016-03-13T02:50:18.473Z,0
2016-03-13T02:51:18.382Z,0
2016-03-13T02:52:18.370Z,0
2016-03-13T02:53:18.341Z,0
2016-03-13T02:54:18.328Z,0
2016-03-13T02:55:18.253Z,0
2016-03-13T02:56:18.240Z,0
2016-03-13T02:57:18.228Z,0
2016-03-13T02:58:18.183Z,0
2016-03-13T02:59:18.123Z,0
2016-03-13T03:00:18.095Z,0
2016-03-13T03:01:18.051Z,0
2016-03-13T03:02:18.022Z,0
2016-03-13T03:03:18.025Z,0
2016-03-13T03:04:17.950Z,0
2016-03-13T03:05:17.936Z,0
2016-03-13T03:06:17.908Z,0
2016-03-13T03:07:17.863Z,0
2016-03-13T03:08:17.803Z,0
2016-03-13T03:09:17.806Z,0
2016-03-13T03:10:17.777Z,0
2016-03-13T03:11:17.718Z,0
2016-03-13T03:12:17.580Z,0
2016-03-13T03:13:17.676Z,0
2016-03-13T03:14:17.616Z,0
2016-03-13T03:15:17.604Z,0
2016-03-13T03:16:17.543Z,0
2016-03-13T03:17:17.531Z,0
2016-03-13T03:18:17.486Z,0
2016-03-13T03:19:17.457Z,0
2016-03-13T03:20:17.414Z,0
2016-03-13T03:21:17.385Z,0
2016-03-13T03:22:17.356Z,0
2016-03-13T03:23:17.187Z,0
2016-03-13T03:24:17.284Z,0
2016-03-13T03:25:17.270Z,0
2016-03-13T03:26:17.211Z,0
2016-03-13T03:27:17.261Z,0
2016-03-13T03:28:17.153Z,0
2016-03-13T03:29:17.110Z,0
2016-03-13T03:30:17.081Z,0
2016-03-13T03:31:17.053Z,0
2016-03-13T03:32:17.009Z,0
2016-03-13T03:33:16.980Z,0
2016-03-13T03:34:16.952Z,0
2016-03-13T03:35:16.923Z,0
2016-03-13T03:36:16.894Z,0
2016-03-13T03:37:16.850Z,0
2016-03-13T03:38:16.822Z,0
2016-03-13T03:39:16.794Z,0
2016-03-13T03:40:16.749Z,0
2016-03-13T03:41:16.721Z,0
2016-03-13T03:42:16.691Z,0
2016-03-13T03:43:16.647Z,0
2016-03-13T03:44:16.619Z,0
2016-03-13T03:45:16.574Z,0
2016-03-13T03:46:16.562Z,0
2016-03-13T03:47:16.518Z,0
2016-03-13T03:48:16.473Z,0
2016-03-13T03:49:16.460Z,0
2016-03-13T03:50:16.432Z,0
2016-03-13T03:51:16.387Z,0
2016-03-13T03:52:16.359Z,0
2016-03-13T03:53:16.314Z,0
2016-03-13T03:54:16.286Z,0
2016-03-13T03:55:16.242Z,0
2016-03-13T03:56:16.214Z,0
2016-03-13T03:57:16.184Z,0
2016-03-13T03:58:16.141Z,0
2016-03-13T03:59:16.112Z,0
2016-03-13T04:00:16.083Z,0
2016-03-13T04:01:16.024Z,0
2016-03-13T04:02:16.011Z,0
2016-03-13T04:03:15.983Z,0
2016-03-13T04:04:15.939Z,0
2016-03-13T04:05:15.910Z,0
2016-03-13T04:06:15.881Z,0
2016-03-13T04:07:15.822Z,0
2016-03-13T04:08:15.808Z,0
2016-03-13T04:09:15.764Z,0
2016-03-13T04:10:15.736Z,0
2016-03-13T04:11:15.707Z,0
2016-03-13T04:12:15.679Z,0
2016-03-13T04:13:15.650Z,0
2016-03-13T04:14:15.605Z,0
2016-03-13T04:15:15.562Z,0
2016-03-13T04:16:15.533Z,0
2016-03-13T04:17:15.504Z,0
2016-03-13T04:18:15.460Z,0
2016-03-13T04:19:15.448Z,0
2016-03-13T04:20:15.403Z,0
2016-03-13T04:21:15.374Z,0
2016-03-13T04:22:15.331Z,0
2016-03-13T04:23:15.301Z,0
2016-03-13T04:24:15.273Z,0
2016-03-13T04:25:15.245Z,0
2016-03-13T04:26:15.200Z,0
2016-03-13T04:27:15.173Z,0
2016-03-13T04:28:15.143Z,0
2016-03-13T04:29:15.115Z,0
2016-03-13T04:30:15.087Z,0
2016-03-13T04:31:15.042Z,0
2016-03-13T04:32:14.842Z,0
2016-03-13T04:33:14.970Z,0
2016-03-13T04:34:14.942Z,0
2016-03-13T04:35:14.912Z,0
2016-03-13T04:36:14.869Z,0
2016-03-13T04:37:14.840Z,0
2016-03-13T04:38:14.811Z,0
2016-03-13T04:39:14.767Z,0
2016-03-13T04:40:14.738Z,0
2016-03-13T04:41:14.710Z,0
2016-03-13T04:42:14.666Z,0
2016-03-13T04:43:14.637Z,0
2016-03-13T04:44:14.608Z,0
2016-03-13T04:45:14.580Z,0
2016-03-13T04:46:14.551Z,0
2016-03-13T04:47:14.523Z,0
2016-03-13T04:48:14.479Z,0
2016-03-13T04:49:14.449Z,0
2016-03-13T04:50:14.421Z,0
2016-03-13T04:51:14.376Z,0
2016-03-13T04:52:14.348Z,0
2016-03-13T04:53:14.320Z,0
2016-03-13T04:54:14.292Z,0
2016-03-13T04:55:14.247Z,0
2016-03-13T04:56:14.218Z,0
2016-03-13T04:57:14.190Z,0
2016-03-13T04:58:14.130Z,0
2016-03-13T04:59:14.101Z,0
2016-03-13T05:00:14.073Z,0
2016-03-13T05:01:14.045Z,0
2016-03-13T05:02:14.017Z,0
2016-03-13T05:03:14.003Z,0
2016-03-13T05:04:13.944Z,0
2016-03-13T05:05:13.915Z,0
2016-03-13T05:06:13.714Z,0
2016-03-13T05:07:13.842Z,0
2016-03-13T05:08:13.814Z,0
2016-03-13T05:09:13.785Z,0
2016-03-13T05:10:13.741Z,0
2016-03-13T05:11:13.713Z,0
2016-03-13T05:12:13.511Z,0
2016-03-13T05:13:13.624Z,0
2016-03-13T05:14:13.596Z,4
2016-03-13T05:15:13.566Z,4
2016-03-13T05:16:13.538Z,4
2016-03-13T05:17:13.494Z,4
2016-03-13T05:18:13.465Z,4
2016-03-13T05:19:13.437Z,0
2016-03-13T05:20:13.393Z,0
2016-03-13T05:21:13.364Z,4
2016-03-13T05:22:13.335Z,4
2016-03-13T05:23:13.307Z,4
2016-03-13T05:24:13.262Z,4
2016-03-13T05:25:13.234Z,4
2016-03-13T05:26:13.205Z,8
2016-03-13T05:27:13.161Z,8
2016-03-13T05:28:13.133Z,8
2016-03-13T05:29:13.088Z,12
2016-03-13T05:30:13.059Z,12
2016-03-13T05:31:13.031Z,16
2016-03-13T05:32:13.003Z,20
2016-03-13T05:33:12.958Z,24
2016-03-13T05:34:12.930Z,28
2016-03-13T05:35:12.902Z,32
2016-03-13T05:36:12.858Z,36
2016-03-13T05:37:12.829Z,40
2016-03-13T05:38:12.800Z,48
2016-03-13T05:39:12.756Z,56
2016-03-13T05:40:12.728Z,68
2016-03-13T05:41:12.699Z,76
2016-03-13T05:42:12.671Z,92
2016-03-13T05:43:12.627Z,132
2016-03-13T05:44:12.597Z,192
2016-03-13T05:45:12.569Z,228
2016-03-13T05:46:14.776Z,260
2016-03-13T05:47:12.372Z,296
2016-03-13T05:48:12.453Z,324
2016-03-13T05:49:15.052Z,360
2016-03-13T05:50:12.367Z,388
2016-03-13T05:51:12.386Z,420
2016-03-13T05:52:12.310Z,456
2016-03-13T05:53:12.282Z,492
2016-03-13T05:54:12.253Z,532
2016-03-13T05:55:12.225Z,572
2016-03-13T05:56:12.180Z,620
2016-03-13T05:57:12.152Z,664
2016-03-13T05:58:12.108Z,712
2016-03-13T05:59:12.084Z,760
2016-03-13T06:00:12.040Z,784
2016-03-13T06:01:12.012Z,812
2016-03-13T06:02:11.982Z,832
2016-03-13T06:03:11.954Z,856
2016-03-13T06:04:11.926Z,888
2016-03-13T06:05:11.881Z,932
2016-03-13T06:06:11.868Z,1000
2016-03-13T06:07:11.822Z,1060
2016-03-13T06:08:11.793Z,1112
2016-03-13T06:09:11.781Z,1180
2016-03-13T06:10:11.736Z,1208
2016-03-13T06:11:11.692Z,1296
2016-03-13T06:12:11.664Z,1400
2016-03-13T06:13:11.620Z,1440
2016-03-13T06:14:11.575Z,1512
2016-03-13T06:15:11.578Z,1636
2016-03-13T06:16:11.518Z,1716
2016-03-13T06:17:11.474Z,1760
2016-03-13T06:18:11.445Z,1856
2016-03-13T06:19:11.401Z,1984
2016-03-13T06:20:11.372Z,2040
2016-03-13T06:21:11.328Z,2056
2016-03-13T06:22:11.299Z,2204
2016-03-13T06:23:11.271Z,2432
2016-03-13T06:24:11.227Z,2508
2016-03-13T06:25:11.213Z,2472
2016-03-13T06:26:11.169Z,2572
2016-03-13T06:27:11.141Z,2696
2016-03-13T06:28:11.112Z,2692
2016-03-13T06:29:11.084Z,2740
2016-03-13T06:30:11.040Z,2844
2016-03-13T06:31:11.011Z,3072
2016-03-13T06:32:10.967Z,3196
2016-03-13T06:33:10.938Z,3152
2016-03-13T06:34:10.894Z,3328
2016-03-13T06:35:10.865Z,3444
2016-03-13T06:36:10.837Z,3452
2016-03-13T06:37:10.808Z,3588
2016-03-13T06:38:10.795Z,3716
2016-03-13T06:39:10.736Z,3604
2016-03-13T06:40:10.706Z,3576
2016-03-13T06:41:10.664Z,3672
2016-03-13T06:42:10.650Z,3836
2016-03-13T06:43:10.497Z,3888
2016-03-13T06:44:10.609Z,3964
2016-03-13T06:45:10.533Z,4184
2016-03-13T06:46:10.536Z,4520
2016-03-13T06:47:10.476Z,4660
2016-03-13T06:48:12.932Z,4584
2016-03-13T06:49:15.450Z,4508
2016-03-13T06:50:10.390Z,4788
2016-03-13T06:51:10.346Z,5220
2016-03-13T06:52:10.302Z,5568
2016-03-13T06:53:10.289Z,5632
2016-03-13T06:54:10.260Z,5444
2016-03-13T06:55:10.216Z,5164
2016-03-13T06:56:10.172Z,4880
2016-03-13T06:57:10.143Z,4716
2016-03-13T06:58:10.162Z,4556
2016-03-13T06:59:10.099Z,4400
2016-03-13T07:00:10.040Z,4520
2016-03-13T07:01:10.043Z,4772
2016-03-13T07:02:14.923Z,4724
2016-03-13T07:03:09.954Z,4688
2016-03-13T07:04:09.926Z,4976
2016-03-13T07:05:09.882Z,5180
2016-03-13T07:06:09.853Z,5416
2016-03-13T07:07:09.809Z,5500
2016-03-13T07:08:09.780Z,5608
2016-03-13T07:09:09.736Z,5424
2016-03-13T07:10:09.707Z,5204
2016-03-13T07:11:09.694Z,5184
2016-03-13T07:12:09.650Z,5072
2016-03-13T07:13:09.668Z,4948
2016-03-13T07:14:09.593Z,4904
2016-03-13T07:15:09.580Z,5072
2016-03-13T07:16:09.505Z,5672
2016-03-13T07:17:09.508Z,6120
2016-03-13T07:18:09.463Z,6768
2016-03-13T07:19:09.419Z,7392
2016-03-13T07:20:09.390Z,7652
2016-03-13T07:21:09.361Z,7720
2016-03-13T07:22:09.349Z,7916
2016-03-13T07:23:09.288Z,7400
2016-03-13T07:24:09.291Z,7032
2016-03-13T07:25:09.232Z,6860
2016-03-13T07:26:09.234Z,6356
2016-03-13T07:27:09.191Z,5996
2016-03-13T07:28:09.146Z,6012
2016-03-13T07:29:09.102Z,6232
2016-03-13T07:30:09.089Z,6548
2016-03-13T07:31:09.060Z,7068
2016-03-13T07:32:09.032Z,7940
2016-03-13T07:33:08.972Z,7960
2016-03-13T07:34:08.944Z,7700
2016-03-13T07:35:08.899Z,7368
2016-03-13T07:36:08.887Z,7384
2016-03-13T07:37:08.889Z,8072
2016-03-13T07:38:08.814Z,8976
2016-03-13T07:39:08.817Z,9272
2016-03-13T07:40:08.756Z,9264
2016-03-13T07:41:08.728Z,9504
2016-03-13T07:42:08.684Z,9844
2016-03-13T07:43:08.670Z,9476
2016-03-13T07:44:08.626Z,8748
2016-03-13T07:45:08.613Z,8360
2016-03-13T07:46:08.553Z,8020
2016-03-13T07:47:08.541Z,7848
2016-03-13T07:48:08.496Z,7804
2016-03-13T07:49:08.499Z,7732
2016-03-13T07:50:08.439Z,7648
2016-03-13T07:51:08.411Z,8012
2016-03-13T07:52:08.414Z,8524
2016-03-13T07:53:08.339Z,8920
2016-03-13T07:54:08.325Z,9040
2016-03-13T07:55:08.281Z,8888
2016-03-13T07:56:08.269Z,8684
2016-03-13T07:57:08.224Z,8328
2016-03-13T07:58:08.196Z,8076
2016-03-13T07:59:08.166Z,8012
2016-03-13T08:00:08.123Z,8028
2016-03-13T08:01:08.079Z,7888
2016-03-13T08:02:08.081Z,8060
2016-03-13T08:03:08.021Z,8308
2016-03-13T08:04:08.040Z,8612
2016-03-13T08:05:07.965Z,8664
2016-03-13T08:06:07.952Z,8764
2016-03-13T08:07:07.907Z,8812
2016-03-13T08:08:07.895Z,8980
2016-03-13T08:09:07.834Z,8724
2016-03-13T08:10:07.821Z,8704
2016-03-13T08:11:07.778Z,9172
2016-03-13T08:12:07.748Z,9328
2016-03-13T08:13:07.736Z,8896
2016-03-13T08:14:07.707Z,9060
2016-03-13T08:15:07.648Z,9620
2016-03-13T08:16:07.619Z,10512
2016-03-13T08:17:07.590Z,10684
2016-03-13T08:18:07.562Z,10960
2016-03-13T08:19:07.533Z,11124
2016-03-13T08:20:07.505Z,11636
2016-03-13T08:21:07.492Z,12080
2016-03-13T08:22:07.447Z,11472
2016-03-13T08:23:07.419Z,10832
2016-03-13T08:24:07.374Z,10620
2016-03-13T08:25:07.377Z,10608
2016-03-13T08:26:07.302Z,11084
2016-03-13T08:27:07.288Z,11724
2016-03-13T08:28:07.620Z,12164
2016-03-13T08:29:07.216Z,12580
2016-03-13T08:30:07.172Z,11696
2016-03-13T08:31:07.175Z,11672
2016-03-13T08:32:07.115Z,12108
2016-03-13T08:33:07.087Z,12544
2016-03-13T08:34:07.104Z,11788
2016-03-13T08:35:07.029Z,10664
2016-03-13T08:36:07.031Z,10776
2016-03-13T08:37:06.959Z,10856
2016-03-13T08:38:06.947Z,10444
2016-03-13T08:39:06.858Z,9328
2016-03-13T08:40:06.831Z,9032
2016-03-13T08:41:06.789Z,9388
2016-03-13T08:42:06.755Z,9428
2016-03-13T08:43:06.722Z,9684
2016-03-13T08:44:06.688Z,10304
2016-03-13T08:45:06.628Z,9944
2016-03-13T08:46:06.611Z,10068
2016-03-13T08:47:06.565Z,9352
2016-03-13T08:48:06.550Z,8836
2016-03-13T08:49:06.503Z,8236
2016-03-13T08:50:06.489Z,7940
2016-03-13T08:51:06.443Z,8404
2016-03-13T08:52:06.413Z,8420
2016-03-13T08:53:06.383Z,8644
2016-03-13T08:54:06.339Z,9236
2016-03-13T08:55:06.309Z,9160
2016-03-13T08:56:06.139Z,8496
2016-03-13T08:57:06.251Z,8040
2016-03-13T08:58:06.206Z,7580
2016-03-13T08:59:06.193Z,7500
2016-03-13T09:00:06.165Z,6920
2016-03-13T09:01:06.120Z,6772
2016-03-13T09:02:06.091Z,6852
2016-03-13T09:03:06.062Z,7160
2016-03-13T09:04:06.034Z,7544
2016-03-13T09:05:06.006Z,8004
2016-03-13T09:06:05.993Z,9204
2016-03-13T09:07:05.938Z,9984
2016-03-13T09:08:05.896Z,9096
2016-03-13T09:09:05.882Z,9056
2016-03-13T09:10:05.854Z,8548
2016-03-13T09:11:05.810Z,8380
2016-03-13T09:12:05.781Z,9112
2016-03-13T09:13:05.753Z,9312
2016-03-13T09:14:05.709Z,8860
2016-03-13T09:15:05.679Z,8576
2016-03-13T09:16:05.651Z,8456
2016-03-13T09:17:05.654Z,8572
2016-03-13T09:18:05.595Z,8816
2016-03-13T09:19:05.597Z,9060
2016-03-13T09:20:05.522Z,8668
2016-03-13T09:21:05.367Z,8960
2016-03-13T09:22:05.481Z,8948
2016-03-13T09:23:05.311Z,8912
2016-03-13T09:24:05.408Z,9196
2016-03-13T09:25:05.394Z,9400
2016-03-13T09:26:05.350Z,9312
2016-03-13T09:27:05.321Z,8720
2016-03-13T09:28:05.293Z,8544
2016-03-13T09:29:05.249Z,8292
2016-03-13T09:30:05.236Z,8168
2016-03-13T09:31:05.192Z,8096
2016-03-13T09:32:05.163Z,8020
2016-03-13T09:33:05.135Z,8584
2016-03-13T09:34:05.106Z,9004
2016-03-13T09:35:05.062Z,8660
2016-03-13T09:36:05.049Z,8852
2016-03-13T09:37:05.005Z,10060
2016-03-13T09:38:04.976Z,9296
2016-03-13T09:39:04.932Z,8784
2016-03-13T09:40:04.919Z,8748
2016-03-13T09:41:04.891Z,8992
2016-03-13T09:42:04.862Z,10180
2016-03-13T09:43:04.865Z,11468
2016-03-13T09:44:04.790Z,11652
2016-03-13T09:45:04.760Z,12884
2016-03-13T09:46:04.717Z,13168
2016-03-13T09:47:04.720Z,13300
2016-03-13T09:48:04.660Z,13396
2016-03-13T09:49:04.646Z,13084
2016-03-13T09:50:04.618Z,12116
2016-03-13T09:51:04.433Z,12924
2016-03-13T09:52:04.545Z,12852
2016-03-13T09:53:04.516Z,12440
2016-03-13T09:54:04.489Z,12176
2016-03-13T09:55:04.444Z,11864
2016-03-13T09:56:04.431Z,11348
2016-03-13T09:57:04.403Z,10832
2016-03-13T09:58:04.358Z,10972
2016-03-13T09:59:04.330Z,10232
2016-03-13T10:00:04.301Z,9696
2016-03-13T10:01:04.272Z,10060
2016-03-13T10:02:04.244Z,10508
2016-03-13T10:03:04.215Z,10476
2016-03-13T10:04:04.186Z,10824
2016-03-13T10:05:04.143Z,10688
2016-03-13T10:06:04.130Z,10236
2016-03-13T10:07:04.086Z,9864
2016-03-13T10:08:04.072Z,9964
2016-03-13T10:09:04.013Z,10932
2016-03-13T10:10:03.999Z,11344
2016-03-13T10:11:03.955Z,11308
2016-03-13T10:12:03.958Z,13004
2016-03-13T10:13:03.899Z,13084
2016-03-13T10:14:03.870Z,12896
2016-03-13T10:15:03.857Z,12984
2016-03-13T10:16:03.798Z,13460
2016-03-13T10:17:03.815Z,12832
2016-03-13T10:18:03.756Z,11800
2016-03-13T10:19:03.742Z,10940
2016-03-13T10:20:03.683Z,10780
2016-03-13T10:21:03.686Z,11400
2016-03-13T10:22:03.625Z,10960
2016-03-13T10:23:03.628Z,10836
2016-03-13T10:24:03.569Z,11312
2016-03-13T10:25:03.556Z,11332
2016-03-13T10:26:03.496Z,11100
2016-03-13T10:27:03.498Z,11112
2016-03-13T10:28:03.439Z,10852
2016-03-13T10:29:03.425Z,10156
2016-03-13T10:30:03.397Z,10088
2016-03-13T10:31:03.369Z,9948
2016-03-13T10:32:03.324Z,9404
2016-03-13T10:33:03.280Z,9484
2016-03-13T10:34:03.267Z,10196
2016-03-13T10:35:03.239Z,10692
2016-03-13T10:36:03.210Z,10876
2016-03-13T10:37:03.197Z,11192
2016-03-13T10:38:03.152Z,11360
2016-03-13T10:39:03.109Z,11324
2016-03-13T10:40:03.096Z,12084
2016-03-13T10:41:03.068Z,13104
2016-03-13T10:42:03.024Z,13788
2016-03-13T10:43:03.010Z,13808
2016-03-13T10:44:02.966Z,14708
2016-03-13T10:45:02.938Z,14360
2016-03-13T10:46:02.924Z,14500
2016-03-13T10:47:02.896Z,14492
2016-03-13T10:48:02.852Z,13560
2016-03-13T10:49:02.823Z,13252
2016-03-13T10:50:02.779Z,14360
2016-03-13T10:51:02.766Z,13300
2016-03-13T10:52:02.722Z,13232
2016-03-13T10:53:02.693Z,13548
2016-03-13T10:54:02.696Z,12740
2016-03-13T10:55:02.637Z,13180
2016-03-13T10:56:02.623Z,13204
2016-03-13T10:57:02.564Z,13832
2016-03-13T10:58:02.551Z,14192
2016-03-13T10:59:02.523Z,15416
2016-03-13T11:00:02.509Z,14780
2016-03-13T11:01:02.464Z,14672
2016-03-13T11:02:02.436Z,14600
2016-03-13T11:03:02.408Z,15412
2016-03-13T11:04:02.395Z,15140
2016-03-13T11:05:02.335Z,14820
2016-03-13T11:06:02.322Z,15508
2016-03-13T11:07:02.278Z,15040
2016-03-13T11:08:02.265Z,15080
2016-03-13T11:09:02.221Z,14368
2016-03-13T11:10:02.193Z,14828
2016-03-13T11:11:02.163Z,14136
2016-03-13T11:12:02.119Z,13124
2016-03-13T11:13:02.122Z,12192
2016-03-13T11:14:02.078Z,10796
2016-03-13T11:15:02.065Z,9956
2016-03-13T11:16:02.020Z,11124
2016-03-13T11:17:02.007Z,10088
2016-03-13T11:18:01.807Z,8692
2016-03-13T11:19:01.951Z,8492
2016-03-13T11:20:01.735Z,9624
2016-03-13T11:21:01.879Z,11148
2016-03-13T11:22:01.834Z,10488
2016-03-13T11:23:01.821Z,9560
2016-03-13T11:24:01.776Z,9216
2016-03-13T11:25:01.748Z,9572
2016-03-13T11:26:01.720Z,9160
2016-03-13T11:27:01.706Z,8564
2016-03-13T11:28:01.662Z,8832
2016-03-13T11:29:01.665Z,10748
2016-03-13T11:30:01.605Z,12768
2016-03-13T11:31:01.420Z,12096
2016-03-13T11:32:01.392Z,12520
2016-03-13T11:33:01.505Z,12020
2016-03-13T11:34:01.476Z,11848
2016-03-13T11:35:01.447Z,8376
2016-03-13T11:36:01.434Z,5944
2016-03-13T11:37:01.391Z,5840
2016-03-13T11:38:01.362Z,5188
2016-03-13T11:39:01.317Z,5352
2016-03-13T11:40:01.305Z,6572
2016-03-13T11:41:01.277Z,6792
2016-03-13T11:42:01.247Z,6236
2016-03-13T11:43:01.250Z,5952
2016-03-13T11:44:01.066Z,6084
2016-03-13T11:45:01.162Z,6132
2016-03-13T11:46:01.133Z,5860
2016-03-13T11:47:01.088Z,6540
2016-03-13T11:48:01.091Z,7920
2016-03-13T11:49:01.032Z,8292
2016-03-13T11:50:01.018Z,6020
2016-03-13T11:51:00.974Z,6372
2016-03-13T11:52:00.962Z,8708
2016-03-13T11:53:00.746Z,10436
2016-03-13T11:54:00.748Z,11640
2016-03-13T11:55:00.845Z,10324
2016-03-13T11:56:00.676Z,7804
2016-03-13T11:57:00.631Z,7428
2016-03-13T11:58:00.775Z,7824
2016-03-13T11:59:00.731Z,7588
2016-03-13T12:00:00.717Z,6256
2016-03-13T12:01:00.674Z,5536
2016-03-13T12:02:00.630Z,5980
2016-03-13T12:03:00.617Z,6444
2016-03-13T12:04:00.589Z,6076
2016-03-13T12:05:00.560Z,6732
2016-03-13T12:06:00.531Z,6156
2016-03-13T12:07:00.550Z,4980
2016-03-13T12:08:00.458Z,4364
2016-03-13T12:09:00.461Z,4540
2016-03-13T12:10:00.400Z,4720
2016-03-13T12:11:00.403Z,5400
2016-03-13T12:12:00.328Z,5852
2016-03-13T12:13:00.331Z,5184
2016-03-13T12:14:00.287Z,4764
2016-03-13T12:15:00.243Z,5112
2016-03-13T12:16:00.214Z,4624
2016-03-13T12:17:00.216Z,4752
2016-03-13T12:18:00.157Z,4832
2016-03-13T12:19:00.175Z,4948
2016-03-13T12:20:00.100Z,5040
2016-03-13T12:21:00.102Z,4656
2016-03-13T12:22:00.027Z,4284
2016-03-13T12:22:59.999Z,4356
2016-03-13T12:23:59.986Z,4460
2016-03-13T12:24:59.941Z,4424
2016-03-13T12:25:59.944Z,4404
2016-03-13T12:26:59.884Z,4652
2016-03-13T12:27:59.887Z,4976
2016-03-13T12:28:59.827Z,4836
2016-03-13T12:29:59.798Z,4984
2016-03-13T12:30:59.771Z,5680
2016-03-13T12:31:59.742Z,5696
2016-03-13T12:32:59.713Z,5372
2016-03-13T12:33:59.670Z,5572
2016-03-13T12:34:59.656Z,6840
2016-03-13T12:35:59.487Z,8280
2016-03-13T12:36:59.583Z,7896
2016-03-13T12:37:59.555Z,5864
2016-03-13T12:38:59.526Z,4084
2016-03-13T12:39:59.513Z,3856
2016-03-13T12:40:59.469Z,3980
2016-03-13T12:41:59.456Z,4388
2016-03-13T12:42:59.412Z,4500
2016-03-13T12:43:59.383Z,4988
2016-03-13T12:44:59.355Z,4880
2016-03-13T12:45:59.327Z,4896
2016-03-13T12:46:59.125Z,4596
2016-03-13T12:47:59.269Z,4136
2016-03-13T12:48:59.224Z,3960
2016-03-13T12:49:59.228Z,3928
2016-03-13T12:50:59.183Z,3960
2016-03-13T12:51:59.138Z,4044
2016-03-13T12:52:59.111Z,3996
2016-03-13T12:53:59.066Z,3948
2016-03-13T12:54:59.054Z,3856
2016-03-13T12:55:59.041Z,3836
2016-03-13T12:56:58.981Z,3792
2016-03-13T12:57:58.968Z,3872
2016-03-13T12:58:58.954Z,3912
2016-03-13T12:59:58.895Z,3788
2016-03-13T13:00:58.867Z,3888
2016-03-13T13:01:58.838Z,3884
2016-03-13T13:02:58.826Z,3920
2016-03-13T13:03:58.781Z,4004
2016-03-13T13:04:58.753Z,4148
2016-03-13T13:05:58.708Z,4384
2016-03-13T13:06:58.695Z,4688
2016-03-13T13:07:58.667Z,5096
2016-03-13T13:08:58.638Z,5488
2016-03-13T13:09:58.598Z,5012
2016-03-13T13:10:58.569Z,5104
2016-03-13T13:11:58.541Z,5284
2016-03-13T13:12:58.527Z,5380
2016-03-13T13:13:58.484Z,5808
2016-03-13T13:14:58.455Z,7032
2016-03-13T13:15:58.410Z,7916
2016-03-13T13:16:58.382Z,6740
2016-03-13T13:17:58.353Z,4804
2016-03-13T13:18:58.373Z,4292
2016-03-13T13:19:58.296Z,4544
2016-03-13T13:20:58.267Z,5256
2016-03-13T13:21:58.239Z,6064
2016-03-13T13:22:58.211Z,6968
2016-03-13T13:23:58.589Z,8508
2016-03-13T13:24:58.170Z,7012
2016-03-13T13:25:58.125Z,5780
2016-03-13T13:26:58.081Z,7956
2016-03-13T13:27:58.052Z,9112
2016-03-13T13:28:58.024Z,10128
2016-03-13T13:29:58.011Z,11288
2016-03-13T13:30:57.983Z,10824
2016-03-13T13:31:57.939Z,9416
2016-03-13T13:32:57.956Z,9000
2016-03-13T13:33:57.881Z,9892
2016-03-13T13:34:57.868Z,10080
2016-03-13T13:35:57.824Z,8900
2016-03-13T13:36:57.827Z,8392
2016-03-13T13:37:57.766Z,7520
2016-03-13T13:38:57.754Z,6360
2016-03-13T13:39:57.740Z,5264
2016-03-13T13:40:57.713Z,5236
2016-03-13T13:41:57.685Z,4960
2016-03-13T13:42:57.608Z,4184
2016-03-13T13:43:57.611Z,4164
2016-03-13T13:44:57.552Z,3900
2016-03-13T13:45:57.524Z,4444
2016-03-13T13:46:57.510Z,5064
2016-03-13T13:47:57.466Z,4372